Time;durP1;ratioP1;P1;durP2;ratioP2;P2;SDS_P1;SDS_P2;PMS_P1;PMS_P2;Temp;Humidity;BMP_temperature;BMP_pressure;BME280_temperature;BME280_humidity;BME280_pressure;Samples;Min_cycle;Max_cycle;Signal;HPM_P1;HPM_P2
2021/03/08 00:05:45;;;;;;;12.90;11.50;;;1.20;26.80;217.30;157902.00;;;;5077131;23;20476;-83
2021/03/08 00:14:04;;;;;;;14.02;12.00;;;1.20;27.40;2.80;101053.00;;;;5827898;23;20443;-86
2021/03/08 00:16:31;;;;;;;12.57;10.90;;;1.20;27.40;2.80;101045.00;;;;4946289;28;20445;-86
2021/03/08 00:18:59;;;;;;;12.07;10.80;;;1.10;27.40;2.80;101063.00;;;;4936351;29;20488;-84
2021/03/08 00:21:26;;;;;;;13.02;11.63;;;1.10;27.40;2.80;101059.00;;;;4947307;28;21034;-87
2021/03/08 00:23:54;;;;;;;11.80;10.60;;;1.10;27.70;2.80;101035.00;;;;4964315;29;20741;-84
2021/03/08 00:26:21;;;;;;;12.60;11.40;;;1.10;27.70;2.80;101050.00;;;;4932436;29;20427;-85
2021/03/08 00:28:52;;;;;;;12.30;11.10;;;1.00;28.00;2.70;66853.00;;;;4948344;29;20447;-84
2021/03/08 00:31:21;;;;;;;12.57;11.27;;;1.00;28.10;2.70;66847.00;;;;4931510;29;20947;-83
2021/03/08 00:33:48;;;;;;;13.32;11.93;;;1.00;28.00;2.70;101039.00;;;;4930015;29;20439;-87
2021/03/08 00:36:16;;;;;;;12.48;11.18;;;1.10;28.40;2.70;101045.00;;;;4927919;29;21241;-86
2021/03/08 00:38:43;;;;;;;11.93;10.73;;;1.10;27.90;52.70;157834.00;;;;4960480;28;20449;-88
2021/03/08 00:41:13;;;;;;;11.20;10.00;;;1.10;27.70;217.30;157834.00;;;;4968922;28;20500;-87
2021/03/08 00:43:41;;;;;;;12.35;11.05;;;1.10;27.60;217.30;157828.00;;;;4952941;28;20469;-83
2021/03/08 00:46:08;;;;;;;13.07;10.45;;;1.10;27.90;2.70;101038.00;;;;4931808;29;20946;-84
2021/03/08 00:48:37;;;;;;;12.77;11.27;;;1.00;27.50;2.70;66834.00;;;;4928877;29;20471;-84
2021/03/08 00:51:05;;;;;;;13.25;10.30;;;1.20;29.20;2.70;101054.00;;;;4924135;29;20432;-83
2021/03/08 00:53:33;;;;;;;10.88;9.88;;;1.30;28.10;52.70;157803.00;;;;4929213;29;20429;-84
2021/03/08 00:56:00;;;;;;;11.43;10.23;;;1.30;27.20;2.70;101039.00;;;;4947160;29;20435;-89
2021/03/08 00:58:28;;;;;;;11.02;9.93;;;1.30;27.20;2.70;66858.00;;;;4946761;28;20486;-88
2021/03/08 01:00:57;;;;;;;14.75;10.50;;;1.30;27.60;2.70;101054.00;;;;4954660;28;20426;-88
2021/03/08 01:03:25;;;;;;;11.02;9.82;;;1.40;27.60;2.70;66863.00;;;;4943364;28;20513;-84
2021/03/08 01:05:55;;;;;;;12.20;10.30;;;1.40;26.60;2.80;66866.00;;;;4931838;29;20427;-83
2021/03/08 01:08:35;;;;;;;11.50;10.30;;;1.50;27.40;2.80;101040.00;;;;4927854;29;20445;-85
2021/03/08 01:11:04;;;;;;;11.50;10.27;;;1.50;27.40;2.80;101048.00;;;;4938866;29;20759;-83
2021/03/08 01:13:41;;;;;;;11.70;10.60;;;1.50;26.50;217.30;157825.00;;;;4937369;29;20445;-87
2021/03/08 01:16:09;;;;;;;11.38;10.27;;;1.60;27.00;2.70;66845.00;;;;4936174;29;20466;-88
2021/03/08 01:18:36;;;;;;;12.85;10.70;;;1.40;27.30;217.30;157809.00;;;;4937290;29;20433;-88
2021/03/08 01:21:05;;;;;;;11.98;10.77;;;1.30;28.00;2.60;101039.00;;;;4940110;29;20463;-86
2021/03/08 01:23:33;;;;;;;12.23;11.07;;;1.20;26.90;2.60;66819.00;;;;4959112;29;20435;-86
2021/03/08 01:26:00;;;;;;;11.10;10.00;;;1.20;28.60;217.30;157745.00;;;;4939391;29;20432;-89
2021/03/08 01:28:28;;;;;;;11.83;10.63;;;1.30;29.60;217.30;157751.00;;;;4925955;29;21221;-85
2021/03/08 01:30:56;;;;;;;11.50;10.23;;;1.30;27.50;52.70;157757.00;;;;4929470;29;20806;-86
2021/03/08 01:33:24;;;;;;;11.23;10.02;;;1.10;26.90;2.50;66811.00;;;;4944441;29;20441;-85
2021/03/08 01:35:52;;;;;;;11.55;10.35;;;1.40;28.50;2.40;66803.00;;;;4929862;29;20738;-85
2021/03/08 01:38:20;;;;;;;12.00;10.80;;;1.30;28.70;52.70;157737.00;;;;4935950;28;20453;-85
2021/03/08 01:40:48;;;;;;;12.37;10.97;;;1.20;28.10;2.50;101028.00;;;;4927437;29;20532;-82
2021/03/08 01:43:15;;;;;;;12.10;10.90;;;1.10;28.60;217.30;157725.00;;;;4942843;29;20442;-85
2021/03/08 01:45:43;;;;;;;12.45;11.15;;;1.20;30.00;52.70;157715.00;;;;4949531;29;20466;-85
2021/03/08 01:48:10;;;;;;;12.98;11.68;;;1.20;30.10;217.30;157715.00;;;;4933814;29;20430;-85
2021/03/08 01:50:42;;;;;;;12.65;11.30;;;1.20;29.20;217.30;157684.00;;;;4936026;29;20415;-85
2021/03/08 01:53:12;;;;;;;12.52;11.23;;;1.10;29.60;2.30;101036.00;;;;4952941;28;20486;-84
2021/03/08 01:55:41;;;;;;;12.88;11.13;;;1.00;29.70;2.30;66767.00;;;;4963341;28;20410;-85
2021/03/08 01:58:09;;;;;;;13.33;11.77;;;0.90;29.50;2.30;101017.00;;;;4944437;29;20445;-84
2021/03/08 02:00:37;;;;;;;14.20;12.70;;;0.90;30.30;2.30;101031.00;;;;4946888;29;20463;-84
2021/03/08 02:03:06;;;;;;;15.13;13.10;;;0.80;30.10;2.30;66731.00;;;;4928583;29;20442;-85
2021/03/08 02:05:38;;;;;;;13.57;11.70;;;0.70;30.40;52.70;157614.00;;;;4943665;29;20509;-84
2021/03/08 02:08:08;;;;;;;14.50;12.50;;;0.70;32.20;2.20;101029.00;;;;4927689;29;20500;-84
2021/03/08 02:10:38;;;;;;;13.55;12.10;;;0.70;31.00;2.10;101018.00;;;;4929801;29;20498;-83
2021/03/08 02:13:52;;;;;;;13.23;11.80;;;0.70;31.20;217.30;157537.00;;;;4937788;29;20524;-84
2021/03/08 02:16:28;;;;;;;15.60;11.93;;;0.70;32.30;217.30;157557.00;;;;4902213;29;20479;-84
2021/03/08 02:19:03;;;;;;;16.65;12.60;;;0.60;31.80;2.00;101007.00;;;;4936234;29;20422;-84
2021/03/08 02:22:47;;;;;;;14.25;12.60;;;0.50;32.50;2.00;101020.00;;;;4927759;29;20615;-83
2021/03/08 02:25:35;;;;;;;13.40;12.07;;;0.40;32.60;2.00;66688.00;;;;4919000;29;20508;-84
2021/03/08 02:28:42;;;;;;;13.10;11.70;;;0.40;32.60;217.30;157527.00;;;;4926295;29;20426;-85
2021/03/08 02:31:12;;;;;;;13.80;12.38;;;0.40;32.90;2.00;101030.00;;;;4926105;29;20496;-84
2021/03/08 02:33:47;;;;;;;15.45;12.55;;;0.40;33.50;2.00;101034.00;;;;4933202;29;20480;-84
2021/03/08 02:36:15;;;;;;;18.27;13.20;;;0.40;33.50;217.30;157527.00;;;;4932063;29;20531;-84
2021/03/08 02:38:48;;;;;;;16.17;13.95;;;0.30;33.90;217.30;157489.00;;;;4925219;29;20440;-85
2021/03/08 02:41:19;;;;;;;15.25;13.75;;;0.30;34.30;1.90;66672.00;;;;4940716;29;20470;-85
2021/03/08 02:43:53;;;;;;;14.88;13.20;;;0.20;34.30;217.30;157483.00;;;;4928013;29;20474;-84
2021/03/08 02:46:27;;;;;;;16.70;13.57;;;0.20;34.60;217.30;157473.00;;;;4947132;28;20543;-85
2021/03/08 02:48:58;;;;;;;17.33;15.10;;;0.20;34.90;217.30;157460.00;;;;4943925;29;20438;-85
2021/03/08 02:51:31;;;;;;;15.55;13.13;;;0.10;35.00;52.70;157424.00;;;;4940180;28;20474;-85
2021/03/08 02:54:02;;;;;;;16.08;13.20;;;0.10;35.80;1.80;66648.00;;;;4973036;28;20421;-85
2021/03/08 02:56:35;;;;;;;16.95;13.43;;;0.20;36.20;52.70;157424.00;;;;4938825;29;20480;-84
2021/03/08 02:59:07;;;;;;;16.13;13.98;;;0.10;36.10;1.80;66638.00;;;;4945551;29;20432;-83
2021/03/08 03:01:37;;;;;;;16.38;14.48;;;0.10;36.20;217.30;157347.00;;;;4944907;29;20490;-84
2021/03/08 03:04:07;;;;;;;16.63;14.25;;;0.10;36.60;217.30;157424.00;;;;4926458;29;20512;-84
2021/03/08 03:06:38;;;;;;;19.38;14.45;;;0.10;36.90;217.30;157394.00;;;;4933795;29;20426;-84
2021/03/08 03:09:08;;;;;;;17.75;14.18;;;0.10;37.20;1.70;101008.00;;;;4926108;29;20465;-84
2021/03/08 03:11:39;;;;;;;18.80;15.10;;;0.10;37.40;217.30;157388.00;;;;4927789;29;20426;-84
2021/03/08 03:14:07;;;;;;;14.73;13.13;;;0.10;37.90;1.80;100996.00;;;;4945972;29;20429;-84
2021/03/08 03:16:37;;;;;;;15.05;13.30;;;0.10;37.80;217.30;157404.00;;;;4934159;29;20432;-84
2021/03/08 03:19:06;;;;;;;18.52;14.65;;;0.20;38.00;1.70;66632.00;;;;4926972;29;20954;-84
2021/03/08 03:21:36;;;;;;;19.95;15.23;;;0.10;37.90;1.70;66632.00;;;;4925414;29;20435;-84
2021/03/08 03:24:04;;;;;;;17.08;14.07;;;0.10;38.20;217.30;157394.00;;;;4926983;29;20860;-84
2021/03/08 03:26:32;;;;;;;16.80;14.45;;;0.00;38.60;1.70;66625.00;;;;4931700;29;20544;-85
2021/03/08 03:29:01;;;;;;;15.32;13.70;;;0.00;38.90;217.30;157394.00;;;;4941269;29;20431;-84
2021/03/08 03:31:32;;;;;;;15.63;13.90;;;0.10;39.10;1.70;100994.00;;;;4930201;29;20441;-84
2021/03/08 03:34:01;;;;;;;15.43;13.75;;;0.10;38.80;1.70;66611.00;;;;4939983;29;20437;-84
2021/03/08 03:36:30;;;;;;;16.33;14.52;;;0.10;38.50;1.70;101002.00;;;;4926603;29;20483;-84
2021/03/08 03:38:59;;;;;;;16.75;14.05;;;0.00;38.70;1.70;100994.00;;;;4944768;29;20927;-84
2021/03/08 03:41:28;;;;;;;19.25;14.70;;;0.00;39.50;1.60;101022.00;;;;4929665;29;20512;-83
2021/03/08 03:43:56;;;;;;;20.23;15.30;;;-0.10;40.20;1.60;66601.00;;;;4938485;29;21033;-84
2021/03/08 03:46:23;;;;;;;17.45;15.55;;;-0.20;40.50;-80.20;157301.00;;;;4937805;29;20438;-84
2021/03/08 03:48:51;;;;;;;21.05;15.73;;;-0.30;40.60;1.40;101028.00;;;;4937394;29;20443;-84
2021/03/08 03:51:20;;;;;;;17.77;15.70;;;-0.30;41.70;1.40;101001.00;;;;4931073;29;20854;-83
2021/03/08 03:53:48;;;;;;;19.42;16.63;;;-0.50;44.70;217.30;157259.00;;;;4939799;29;20433;-84
2021/03/08 03:56:17;;;;;;;21.35;17.13;;;-0.40;47.10;52.70;157259.00;;;;4945868;29;20454;-85
2021/03/08 03:58:52;;;;;;;20.27;16.55;;;-0.60;47.10;1.30;66547.00;;;;4945004;29;20463;-84
2021/03/08 04:01:24;;;;;;;19.80;17.35;;;-0.50;47.60;1.30;101032.00;;;;4936435;29;20875;-84
2021/03/08 04:03:57;;;;;;;18.30;15.43;;;-0.50;46.90;217.30;157214.00;;;;4931272;29;20421;-84
2021/03/08 04:06:32;;;;;;;19.48;16.55;;;-0.50;47.10;217.30;157234.00;;;;4937748;28;20442;-85
2021/03/08 04:09:01;;;;;;;20.02;15.80;;;-0.50;47.00;1.30;66529.00;;;;4951118;28;20440;-85
2021/03/08 04:11:32;;;;;;;17.17;15.48;;;-0.40;46.90;217.30;157234.00;;;;4955208;28;20505;-84
2021/03/08 04:14:03;;;;;;;16.92;15.23;;;-0.40;46.70;1.30;66544.00;;;;4949400;28;20441;-84
2021/03/08 04:16:32;;;;;;;15.88;14.00;;;-0.30;46.80;217.30;157234.00;;;;4956243;28;20474;-85
2021/03/08 04:19:02;;;;;;;16.27;14.57;;;-0.20;46.70;217.30;157194.00;;;;4950727;28;20421;-85
2021/03/08 04:21:35;;;;;;;16.08;14.38;;;0.60;47.30;217.30;157239.00;;;;4943763;28;20421;-85
2021/03/08 04:24:04;;;;;;;16.15;14.45;;;-0.10;46.10;52.70;157265.00;;;;4953293;29;20443;-85
2021/03/08 04:26:31;;;;;;;17.67;15.07;;;-0.20;45.90;217.30;157271.00;;;;4955560;29;20447;-85
2021/03/08 04:29:00;;;;;;;20.25;16.00;;;-0.10;46.10;217.30;157271.00;;;;4942172;29;20458;-85
2021/03/08 04:31:27;;;;;;;18.13;15.57;;;-0.20;45.50;52.70;157265.00;;;;4938496;29;20437;-83
2021/03/08 04:33:56;;;;;;;19.27;16.30;;;-0.20;46.00;1.30;101039.00;;;;4941467;29;20455;-83
2021/03/08 04:36:24;;;;;;;19.00;15.52;;;-0.20;46.40;1.30;66560.00;;;;4944101;28;20449;-86
2021/03/08 04:38:53;;;;;;;17.40;15.60;;;-0.20;47.10;1.40;101055.00;;;;4960641;28;20424;-83
2021/03/08 04:41:21;;;;;;;17.83;15.30;;;-0.20;46.90;217.30;157271.00;;;;4944176;29;20427;-83
2021/03/08 04:43:49;;;;;;;17.80;15.60;;;-0.20;47.30;217.30;157265.00;;;;4942400;29;20427;-84
2021/03/08 04:46:17;;;;;;;17.27;15.47;;;-0.10;47.00;1.40;101060.00;;;;4951810;29;20447;-84
2021/03/08 04:48:46;;;;;;;18.08;16.10;;;-0.20;46.80;217.30;157249.00;;;;4937526;29;20852;-83
2021/03/08 04:51:14;;;;;;;20.40;15.80;;;-0.20;47.20;217.30;157259.00;;;;4936022;29;21029;-83
2021/03/08 04:53:42;;;;;;;19.33;15.60;;;-0.20;47.00;217.30;157234.00;;;;4948588;29;20434;-84
2021/03/08 04:56:32;;;;;;;18.20;16.00;;;-0.20;47.00;217.30;157249.00;;;;4951340;29;20435;-84
2021/03/08 04:59:01;;;;;;;18.77;16.50;;;-0.30;46.90;217.30;157259.00;;;;4953300;29;20634;-83
2021/03/08 05:01:33;;;;;;;20.38;16.20;;;-0.30;47.20;217.30;157249.00;;;;4948442;29;20440;-83
2021/03/08 05:04:07;;;;;;;18.58;15.88;;;-0.20;47.40;52.70;157249.00;;;;4948617;29;20443;-84
2021/03/08 05:06:39;;;;;;;17.15;15.35;;;-0.20;47.60;217.30;157220.00;;;;4943212;29;20505;-84
2021/03/08 05:09:09;;;;;;;17.83;15.88;;;-0.20;47.80;52.70;157249.00;;;;4934278;29;20430;-84
2021/03/08 05:11:39;;;;;;;19.30;16.20;;;-0.20;47.00;52.70;157239.00;;;;4939179;29;20439;-84
2021/03/08 05:14:10;;;;;;;17.37;15.47;;;-0.20;47.50;217.30;157214.00;;;;4945280;29;20536;-83
2021/03/08 05:16:44;;;;;;;17.17;15.37;;;-0.20;47.90;52.70;157234.00;;;;4926247;29;20435;-82
2021/03/08 05:19:13;;;;;;;17.17;15.25;;;-0.20;46.90;217.30;157234.00;;;;4951120;29;20447;-83
2021/03/08 05:21:43;;;;;;;21.77;16.45;;;-0.20;46.60;1.30;101067.00;;;;4927798;29;20465;-83
2021/03/08 05:24:13;;;;;;;21.10;16.63;;;-0.20;46.50;52.70;157204.00;;;;4940221;29;20519;-84
2021/03/08 05:26:41;;;;;;;21.83;17.13;;;-0.30;46.90;217.30;157178.00;;;;4941508;29;20425;-82
2021/03/08 05:29:09;;;;;;;24.15;16.92;;;-0.10;47.30;217.30;157156.00;;;;4944215;29;20434;-83
2021/03/08 05:31:42;;;;;;;21.63;17.50;;;-0.40;47.40;1.20;101067.00;;;;4926839;29;20433;-87
2021/03/08 05:34:13;;;;;;;24.23;17.55;;;-0.40;47.90;1.20;101074.00;;;;4925058;29;20427;-84
2021/03/08 05:36:44;;;;;;;21.30;17.27;;;-0.40;48.30;217.30;157172.00;;;;4926538;29;20518;-86
2021/03/08 05:39:13;;;;;;;22.73;17.40;;;-0.40;48.60;1.20;101067.00;;;;4932384;29;20434;-87
2021/03/08 05:41:56;;;;;;;20.27;17.50;;;-0.40;48.60;1.20;101086.00;;;;4937698;29;20545;-86
2021/03/08 05:44:29;;;;;;;20.58;17.95;;;-0.50;48.90;217.30;157129.00;;;;4946714;29;20426;-86
2021/03/08 05:47:38;;;;;;;21.10;18.90;;;-0.50;49.00;1.10;101084.00;;;;4937167;29;20433;-85
2021/03/08 05:51:20;;;;;;;22.67;18.93;;;-0.60;49.00;1.10;101096.00;;;;4921042;29;20628;-84
2021/03/08 05:54:27;;;;;;;24.48;18.95;;;-0.60;51.10;1.10;101081.00;;;;4947222;28;20436;-89
2021/03/08 05:57:18;;;;;;;23.75;19.20;;;-0.60;51.20;1.10;66472.00;;;;4960284;28;20471;-88
2021/03/08 06:00:19;;;;;;;22.23;19.67;;;-0.60;50.90;217.30;157117.00;;;;4940713;29;20447;-83
2021/03/08 06:02:58;;;;;;;22.33;19.92;;;-0.50;50.20;217.30;157139.00;;;;4912874;29;20514;-84
2021/03/08 06:06:22;;;;;;;23.67;20.90;;;-0.60;50.20;217.30;157139.00;;;;4942382;29;20506;-84
2021/03/08 06:09:23;;;;;;;27.60;21.98;;;-0.50;50.70;1.20;101105.00;;;;4932956;29;20459;-83
2021/03/08 06:11:59;;;;;;;23.48;21.05;;;-0.50;50.60;1.20;101104.00;;;;4935239;29;20439;-84
2021/03/08 06:14:34;;;;;;;25.75;21.23;;;-0.40;51.00;217.30;157220.00;;;;4931871;29;20461;-84
2021/03/08 06:17:02;;;;;;;26.13;22.30;;;-0.50;50.80;217.30;157249.00;;;;4933472;29;20429;-85
2021/03/08 06:19:31;;;;;;;28.58;21.98;;;-0.50;51.30;217.30;157265.00;;;;4955013;28;20493;-84
2021/03/08 06:22:01;;;;;;;27.13;22.25;;;-0.50;51.30;52.70;157295.00;;;;4933566;29;20920;-85
2021/03/08 06:24:29;;;;;;;25.30;21.58;;;-0.30;50.90;217.30;157311.00;;;;4939767;28;20457;-84
2021/03/08 06:26:58;;;;;;;25.17;20.48;;;-0.20;50.00;217.30;157347.00;;;;4936013;29;20434;-84
2021/03/08 06:29:27;;;;;;;23.70;21.20;;;-0.20;49.40;217.30;157353.00;;;;4937951;29;20935;-84
2021/03/08 06:31:55;;;;;;;26.02;20.83;;;-0.20;48.80;217.30;157404.00;;;;4938380;29;20503;-85
2021/03/08 06:34:23;;;;;;;23.03;20.53;;;-0.10;48.40;217.30;157428.00;;;;4949358;28;20493;-85
2021/03/08 06:36:52;;;;;;;25.90;22.10;;;0.00;48.10;217.30;157458.00;;;;4946063;28;20450;-85
2021/03/08 06:39:19;;;;;;;27.17;21.63;;;0.00;47.60;1.80;66674.00;;;;4949406;29;20502;-85
2021/03/08 06:41:48;;;;;;;22.40;20.10;;;0.10;47.10;217.30;157505.00;;;;4957357;29;20443;-83
2021/03/08 06:44:16;;;;;;;23.27;20.70;;;0.10;47.10;217.30;157557.00;;;;4959072;29;20508;-84
2021/03/08 06:46:45;;;;;;;23.98;21.15;;;0.10;46.20;217.30;157599.00;;;;4943791;29;20442;-83
2021/03/08 06:49:13;;;;;;;22.85;20.55;;;0.20;46.60;217.30;157634.00;;;;4957704;29;20429;-82
2021/03/08 06:52:03;;;;;;;25.88;21.40;;;0.40;46.70;217.30;157640.00;;;;4937846;29;20437;-84
2021/03/08 06:54:34;;;;;;;23.60;21.20;;;0.30;46.20;217.30;157644.00;;;;4952824;29;20447;-83
2021/03/08 06:57:02;;;;;;;27.77;21.40;;;0.40;46.10;217.30;157757.00;;;;4942267;29;20442;-83
2021/03/08 06:59:29;;;;;;;23.33;20.80;;;0.50;45.60;217.30;157751.00;;;;4935437;29;20453;-82
2021/03/08 07:01:58;;;;;;;23.90;21.30;;;0.70;45.40;217.30;157870.00;;;;4952477;29;20434;-83
2021/03/08 07:04:27;;;;;;;25.20;22.00;;;0.70;45.10;3.00;66907.00;;;;4928421;29;20435;-84
2021/03/08 07:07:01;;;;;;;25.37;20.77;;;0.90;43.60;217.30;157979.00;;;;4933989;29;20435;-82
2021/03/08 07:09:29;;;;;;;23.35;20.83;;;1.10;43.60;217.30;158045.00;;;;4950254;29;20437;-81
2021/03/08 07:12:13;;;;;;;25.80;21.70;;;1.20;42.50;217.30;158096.00;;;;4949868;29;20437;-83
2021/03/08 07:14:44;;;;;;;24.37;21.20;;;1.30;41.30;217.30;158086.00;;;;4928310;29;20431;-83
2021/03/08 07:17:36;;;;;;;24.23;21.23;;;1.40;41.30;3.50;66975.00;;;;4932201;29;20441;-83
2021/03/08 07:20:07;;;;;;;27.90;20.90;;;1.50;40.70;217.30;158235.00;;;;4940463;29;20473;-82
2021/03/08 07:22:45;;;;;;;25.53;21.50;;;1.60;40.50;3.80;67099.00;;;;4939058;29;20452;-82
2021/03/08 07:25:22;;;;;;;33.63;22.17;;;1.70;39.30;217.30;158408.00;;;;4934991;29;20500;-83
2021/03/08 07:27:51;;;;;;;26.30;21.48;;;1.90;38.50;4.20;101149.00;;;;4938171;29;20421;-83
2021/03/08 07:30:22;;;;;;;24.92;21.50;;;2.10;37.70;4.40;101150.00;;;;4949216;29;20404;-83
2021/03/08 07:32:57;;;;;;;23.50;20.67;;;2.30;36.40;4.40;101138.00;;;;4955756;28;20447;-82
2021/03/08 07:35:42;;;;;;;22.73;20.33;;;2.30;33.90;4.40;101139.00;;;;4965813;28;20443;-83
2021/03/08 07:38:12;;;;;;;23.17;20.10;;;2.30;32.90;4.50;101150.00;;;;4930922;29;20433;-83
2021/03/08 07:40:43;;;;;;;21.83;19.63;;;2.40;32.20;4.70;101148.00;;;;4941442;29;20442;-83
2021/03/08 07:43:21;;;;;;;21.87;19.27;;;2.50;31.80;4.80;67327.00;;;;4939896;29;20524;-84
2021/03/08 07:45:49;;;;;;;24.48;20.15;;;2.60;30.60;5.00;101139.00;;;;4952629;29;20481;-81
2021/03/08 07:48:19;;;;;;;20.35;18.25;;;2.70;29.80;5.10;101159.00;;;;4943169;29;20439;-83
2021/03/08 07:50:49;;;;;;;20.13;18.02;;;2.90;28.80;5.10;101145.00;;;;4937652;29;20429;-83
2021/03/08 07:53:30;;;;;;;21.35;19.25;;;3.00;28.10;5.30;67410.00;;;;4963571;28;20434;-83
2021/03/08 07:55:59;;;;;;;20.80;18.75;;;3.00;27.00;217.30;159044.00;;;;4940206;29;20694;-82
2021/03/08 07:58:29;;;;;;;20.45;18.30;;;3.20;26.30;217.30;159086.00;;;;4957808;29;20464;-83
2021/03/08 08:01:00;;;;;;;20.77;18.88;;;3.40;25.20;5.70;101144.00;;;;4948349;29;20493;-82
2021/03/08 08:03:30;;;;;;;22.55;19.63;;;3.30;24.20;5.80;101133.00;;;;4935882;29;20557;-82
2021/03/08 08:06:01;;;;;;;19.20;17.30;;;3.40;23.90;5.90;101138.00;;;;4947509;29;20507;-83
2021/03/08 08:08:33;;;;;;;19.93;18.03;;;3.50;23.80;6.00;100926.00;;;;4939389;29;20438;-84
2021/03/08 08:11:03;;;;;;;21.85;18.63;;;3.70;23.20;6.20;101150.00;;;;4924736;29;20487;-83
2021/03/08 08:13:39;;;;;;;20.88;18.77;;;3.80;22.60;6.20;101135.00;;;;4952774;29;20450;-82
2021/03/08 08:16:08;;;;;;;21.80;19.50;;;3.90;22.30;6.30;101153.00;;;;4943256;28;20439;-84
2021/03/08 08:18:40;;;;;;;22.67;20.00;;;4.00;21.70;6.50;101133.00;;;;4946477;28;20415;-82
2021/03/08 08:21:13;;;;;;;22.88;20.48;;;4.10;21.80;6.50;67698.00;;;;4958144;28;20451;-82
2021/03/08 08:23:44;;;;;;;23.40;20.23;;;4.10;21.60;6.60;101138.00;;;;4949732;28;20531;-83
2021/03/08 08:26:18;;;;;;;22.33;19.90;;;4.10;21.90;6.70;101164.00;;;;4942457;29;20457;-83
2021/03/08 08:28:48;;;;;;;22.08;19.88;;;4.30;21.40;6.80;101155.00;;;;4952242;29;20424;-84
2021/03/08 08:31:15;;;;;;;21.38;19.15;;;4.40;21.40;7.00;101147.00;;;;4942265;29;20492;-83
2021/03/08 08:33:44;;;;;;;21.48;19.13;;;4.60;20.50;7.20;101143.00;;;;4940266;29;20432;-84
2021/03/08 08:36:17;;;;;;;21.60;19.35;;;4.70;19.30;7.30;67873.00;;;;4933831;29;20937;-83
2021/03/08 08:39:14;;;;;;;21.58;19.27;;;4.80;19.30;7.40;101141.00;;;;4937240;29;20844;-84
2021/03/08 08:41:43;;;;;;;21.40;19.10;;;4.80;18.80;7.40;101149.00;;;;4939677;29;20463;-84
2021/03/08 08:44:38;;;;;;;22.98;20.67;;;4.90;18.90;7.30;101164.00;;;;4928180;29;20515;-85
2021/03/08 08:47:30;;;;;;;21.60;19.40;;;4.90;19.10;7.50;101151.00;;;;4929395;29;20957;-83
2021/03/08 08:50:04;;;;;;;22.25;19.85;;;5.00;18.90;7.60;101169.00;;;;4929713;29;20997;-83
2021/03/08 08:52:51;;;;;;;22.48;20.15;;;5.10;18.30;7.70;101145.00;;;;4937060;29;20743;-84
2021/03/08 08:55:22;;;;;;;23.37;20.63;;;5.20;17.80;7.80;101159.00;;;;4931134;29;20475;-83
2021/03/08 08:58:28;;;;;;;20.60;18.50;;;5.30;17.60;7.90;101154.00;;;;4939767;29;20520;-84
2021/03/08 09:01:39;;;;;;;21.70;19.40;;;5.40;17.30;7.90;101165.00;;;;4943262;29;20434;-84
2021/03/08 09:04:11;;;;;;;21.70;19.40;;;5.40;17.30;8.10;101152.00;;;;4934563;29;20457;-83
2021/03/08 09:06:55;;;;;;;21.30;19.20;;;5.50;16.30;217.30;160166.00;;;;4928898;28;20440;-82
2021/03/08 09:09:54;;;;;;;21.35;18.65;;;5.60;15.90;8.20;68061.00;;;;4959548;28;20459;-86
2021/03/08 09:12:39;;;;;;;21.83;19.52;;;5.60;15.40;8.30;101158.00;;;;4946528;29;20452;-84
2021/03/08 09:15:10;;;;;;;19.70;17.80;;;5.70;14.90;8.40;101154.00;;;;4928685;29;20823;-84
2021/03/08 09:17:47;;;;;;;19.98;17.95;;;5.70;14.20;8.30;101156.00;;;;4930189;29;20434;-84
2021/03/08 09:20:27;;;;;;;19.17;17.27;;;5.60;14.30;8.20;101171.00;;;;4938151;29;20446;-83
2021/03/08 09:22:58;;;;;;;19.83;18.03;;;5.60;14.60;217.30;160250.00;;;;4939734;29;20437;-84
2021/03/08 09:25:30;;;;;;;19.60;17.50;;;5.70;14.70;217.30;160355.00;;;;4937695;29;20938;-84
2021/03/08 09:28:08;;;;;;;21.70;17.98;;;5.90;14.00;8.60;101151.00;;;;4948453;29;20446;-84
2021/03/08 09:30:40;;;;;;;19.60;17.65;;;6.00;13.40;8.70;101163.00;;;;4929520;29;20427;-85
2021/03/08 09:33:10;;;;;;;20.20;18.10;;;6.00;12.80;8.70;101175.00;;;;4938995;29;20438;-84
2021/03/08 09:35:41;;;;;;;22.35;20.15;;;6.10;12.80;217.30;160430.00;;;;4930478;29;20867;-85
2021/03/08 09:38:16;;;;;;;21.83;18.80;;;6.10;16.40;217.30;160513.00;;;;4923444;29;20515;-83
2021/03/08 09:40:48;;;;;;;22.60;20.10;;;6.30;12.60;9.10;101164.00;;;;4942356;29;20733;-84
2021/03/08 09:43:24;;;;;;;23.92;20.00;;;6.40;13.80;9.30;101171.00;;;;4929886;29;20467;-84
2021/03/08 09:45:57;;;;;;;22.35;20.02;;;6.70;20.10;9.30;101142.00;;;;4929225;29;20423;-84
2021/03/08 09:48:25;;;;;;;22.00;19.60;;;6.80;12.20;9.30;68332.00;;;;4944699;29;20433;-82
2021/03/08 09:50:53;;;;;;;27.33;19.00;;;6.70;11.20;9.40;101168.00;;;;4925286;29;20449;-85
2021/03/08 09:53:23;;;;;;;25.27;19.40;;;6.70;11.10;9.40;101168.00;;;;4927554;29;20954;-84
2021/03/08 09:55:50;;;;;;;22.77;20.27;;;6.70;11.30;9.50;101164.00;;;;4927506;29;20984;-84
2021/03/08 09:58:19;;;;;;;25.13;20.95;;;6.70;10.70;9.40;101154.00;;;;4944715;29;21004;-85
2021/03/08 10:00:48;;;;;;;22.58;20.27;;;6.60;10.80;9.20;101157.00;;;;4930601;29;20868;-84
2021/03/08 10:03:16;;;;;;;22.85;20.48;;;6.70;11.00;9.40;101174.00;;;;4949704;29;20433;-83
2021/03/08 10:05:47;;;;;;;24.85;19.58;;;6.60;10.90;9.60;101167.00;;;;4938181;29;20945;-84
2021/03/08 10:08:17;;;;;;;21.70;19.40;;;6.80;10.80;9.70;101174.00;;;;4940628;28;20431;-85
2021/03/08 10:10:48;;;;;;;22.55;19.48;;;6.90;9.90;9.80;101164.00;;;;4946829;28;21153;-86
2021/03/08 10:13:16;;;;;;;23.88;19.40;;;7.00;9.50;9.90;101169.00;;;;4958254;28;20418;-87
2021/03/08 10:15:47;;;;;;;22.10;20.00;;;7.10;9.60;10.00;101174.00;;;;4946793;28;20957;-84
2021/03/08 10:18:17;;;;;;;22.05;19.75;;;7.20;8.90;10.10;101167.00;;;;4939691;29;20413;-82
2021/03/08 10:20:51;;;;;;;23.23;19.00;;;7.30;9.00;10.10;101187.00;;;;4929710;29;20421;-83
2021/03/08 10:23:26;;;;;;;22.15;19.83;;;7.30;8.50;10.10;101168.00;;;;4930342;29;20461;-85
2021/03/08 10:26:05;;;;;;;21.23;19.02;;;7.30;8.70;10.10;101169.00;;;;4930884;29;20435;-83
2021/03/08 10:28:40;;;;;;;21.50;19.20;;;7.30;8.40;10.30;101174.00;;;;4934136;29;20430;-84
2021/03/08 10:31:19;;;;;;;22.13;19.73;;;7.40;8.20;10.50;101179.00;;;;4956421;29;20434;-85
2021/03/08 10:33:52;;;;;;;21.38;19.02;;;7.60;7.90;10.70;101167.00;;;;4947178;29;20444;-84
2021/03/08 10:36:23;;;;;;;22.67;19.43;;;7.70;7.30;10.70;101173.00;;;;4953213;29;20446;-87
2021/03/08 10:38:55;;;;;;;21.13;18.85;;;7.80;6.90;10.70;101163.00;;;;4930804;29;20442;-83
2021/03/08 10:41:26;;;;;;;22.20;19.92;;;7.80;6.90;10.50;101163.00;;;;4939894;29;20438;-84
2021/03/08 10:43:54;;;;;;;22.60;20.23;;;7.70;6.90;217.30;161277.00;;;;4949445;28;20413;-86
2021/03/08 10:46:29;;;;;;;22.80;19.90;;;7.70;6.70;10.70;101159.00;;;;4948630;28;20434;-85
2021/03/08 10:48:58;;;;;;;20.77;18.52;;;7.90;6.80;10.70;101160.00;;;;4945275;28;20479;-83
2021/03/08 10:51:27;;;;;;;23.30;20.27;;;7.80;6.90;10.80;101141.00;;;;4935439;29;20432;-83
2021/03/08 10:53:59;;;;;;;22.10;19.80;;;8.20;10.80;10.90;101155.00;;;;4949715;29;20551;-82
2021/03/08 10:56:33;;;;;;;21.33;19.23;;;8.20;6.80;11.00;101153.00;;;;4944717;29;20525;-83
2021/03/08 10:59:03;;;;;;;22.77;19.10;;;8.10;5.90;10.90;101149.00;;;;4930840;29;20534;-85
2021/03/08 11:01:31;;;;;;;22.10;18.73;;;8.00;6.30;10.90;101151.00;;;;4938863;29;20486;-85
2021/03/08 11:03:59;;;;;;;24.15;19.80;;;8.00;6.50;11.10;101153.00;;;;4940292;29;20426;-84
2021/03/08 11:06:27;;;;;;;22.25;18.80;;;8.20;5.90;11.10;68733.00;;;;4938044;29;20503;-85
2021/03/08 11:08:58;;;;;;;21.42;19.20;;;8.20;5.60;11.10;101147.00;;;;4929821;29;20985;-85
2021/03/08 11:11:28;;;;;;;22.50;20.10;;;8.20;5.90;52.70;161541.00;;;;4924915;29;20787;-85
2021/03/08 11:14:03;;;;;;;22.05;19.65;;;8.30;5.70;11.40;101141.00;;;;4939911;29;21565;-86
2021/03/08 11:16:34;;;;;;;21.60;19.30;;;8.60;5.50;11.50;68821.00;;;;4938101;29;20568;-84